Terminal Aerodrome Forecast
Issued by NWS

Home | Current Version | Previous Version | Text Only | Print | Product List | Glossary On
Versions: 1 2 3 4 5 6 7 8 9 10 11 12 13
000
FTUS45 KLKN 291720
TAFEKO
TAF
KEKO 291720Z 2918/3018 VRB04KT P6SM SCT110
     FM292100 23008G16KT P6SM VCTS FEW070CB BKN100
     FM300200 VRB04KT P6SM BKN100=

USA.gov is the U.S. government's official web portal to all federal, state and local government web resources and services.